Time;durP1;ratioP1;P1;durP2;ratioP2;P2;SDS_P1;SDS_P2;PMS_P1;PMS_P2;Temp;Humidity;BMP_temperature;BMP_pressure;BME280_temperature;BME280_humidity;BME280_pressure;Samples;Min_cycle;Max_cycle;Signal;HPM_P1;HPM_P2
2022/04/26 03:36:11;;;;;;;;;40.25;36.00;17.30;99.90;;;;;;5064863;28;11524;-50
2022/04/26 03:38:48;;;;;;;;;40.75;36.00;17.30;99.90;;;;;;5062848;28;11537;-48
2022/04/26 03:41:18;;;;;;;;;37.50;32.50;17.30;99.90;;;;;;5063081;28;11526;-47
2022/04/26 03:43:49;;;;;;;;;35.25;32.50;17.20;99.90;;;;;;5064986;28;12358;-51
2022/04/26 03:46:20;;;;;;;;;34.25;32.50;17.10;99.90;;;;;;5059429;28;11501;-50
2022/04/26 03:48:50;;;;;;;;;35.25;33.00;17.10;99.90;;;;;;5066932;28;11548;-46
2022/04/26 03:51:21;;;;;;;;;36.25;33.50;17.10;99.90;;;;;;5071675;28;11562;-48
2022/04/26 03:53:52;;;;;;;;;27.75;27.75;17.00;99.90;;;;;;5071720;28;11656;-48
2022/04/26 03:56:22;;;;;;;;;26.00;26.00;17.00;99.90;;;;;;5066500;28;12330;-50
2022/04/26 03:58:54;;;;;;;;;25.25;25.25;17.00;99.90;;;;;;5069023;28;11519;-49
2022/04/26 04:01:24;;;;;;;;;24.00;24.00;17.00;99.90;;;;;;5077953;28;11527;-49
2022/04/26 04:03:55;;;;;;;;;26.00;24.75;16.90;99.90;;;;;;5068645;28;11460;-47
2022/04/26 04:06:25;;;;;;;;;25.75;25.75;16.90;99.90;;;;;;5074502;28;11622;-48
2022/04/26 04:08:55;;;;;;;;;25.00;25.00;16.90;99.90;;;;;;5066527;28;11463;-52
2022/04/26 04:11:28;;;;;;;;;21.75;21.75;16.80;99.90;;;;;;5062688;28;11458;-49
2022/04/26 04:13:59;;;;;;;;;20.00;20.00;16.80;99.90;;;;;;5072534;28;11485;-47
2022/04/26 04:16:30;;;;;;;;;15.00;15.00;16.70;99.90;;;;;;5070433;28;11506;-47
2022/04/26 04:19:17;;;;;;;;;15.50;15.00;16.70;99.90;;;;;;5065868;28;11453;-48
2022/04/26 04:21:53;;;;;;;;;15.50;15.50;16.70;99.90;;;;;;5051149;28;12109;-51
2022/04/26 04:24:24;;;;;;;;;15.50;15.50;16.80;99.90;;;;;;5067055;28;11484;-48
2022/04/26 04:26:55;;;;;;;;;14.75;14.75;16.70;99.90;;;;;;5060322;28;11632;-52
2022/04/26 04:29:27;;;;;;;;;14.75;14.75;16.70;99.90;;;;;;5068807;28;11478;-52
2022/04/26 04:31:59;;;;;;;;;14.75;14.75;16.70;99.90;;;;;;5071802;28;11502;-48
2022/04/26 04:34:29;;;;;;;;;18.75;16.25;16.60;99.90;;;;;;5052810;28;11266;-49
2022/04/26 04:37:01;;;;;;;;;12.50;11.25;16.60;99.90;;;;;;5068076;28;11455;-51
2022/04/26 04:39:34;;;;;;;;;19.50;16.25;16.60;99.90;;;;;;5076779;28;11440;-50
2022/04/26 04:42:07;;;;;;;;;11.50;11.50;16.60;99.90;;;;;;5067672;28;11658;-48
2022/04/26 04:44:39;;;;;;;;;16.75;16.00;16.60;99.90;;;;;;5071694;28;11052;-52
2022/04/26 04:47:11;;;;;;;;;15.00;15.00;16.60;99.90;;;;;;5071407;28;11259;-52
2022/04/26 04:49:44;;;;;;;;;14.25;14.25;16.60;99.90;;;;;;5069240;28;11501;-45
2022/04/26 04:52:15;;;;;;;;;15.75;15.75;16.60;99.90;;;;;;5064858;28;11457;-48
2022/04/26 04:54:46;;;;;;;;;16.25;13.75;16.50;99.90;;;;;;5048998;28;11181;-48
2022/04/26 04:57:18;;;;;;;;;14.25;14.25;16.50;99.90;;;;;;5064970;28;11480;-54
2022/04/26 04:59:48;;;;;;;;;13.00;13.00;16.50;99.90;;;;;;5069282;28;11319;-46
2022/04/26 05:02:20;;;;;;;;;12.50;12.50;16.50;99.90;;;;;;5066252;28;11297;-51
2022/04/26 05:04:51;;;;;;;;;11.75;11.75;16.40;99.90;;;;;;5066106;28;11426;-50
2022/04/26 05:07:22;;;;;;;;;15.75;14.25;16.40;99.90;;;;;;5064103;28;11195;-48
2022/04/26 05:09:53;;;;;;;;;14.50;14.50;16.40;99.90;;;;;;5069433;28;11471;-48
2022/04/26 05:12:23;;;;;;;;;11.50;11.50;16.40;99.90;;;;;;5049496;28;11160;-52
2022/04/26 05:14:54;;;;;;;;;13.25;13.00;16.30;99.90;;;;;;5055072;28;11447;-50
2022/04/26 05:17:28;;;;;;;;;14.50;13.50;16.30;99.90;;;;;;5067458;28;11021;-48
2022/04/26 05:20:02;;;;;;;;;14.00;14.00;16.30;99.90;;;;;;5064929;28;11425;-48
2022/04/26 05:24:53;;;;;;;;;13.00;13.00;16.30;99.90;;;;;;5071961;28;11429;-47
2022/04/26 05:25:23;;;;;;;;;13.50;12.00;16.20;99.90;;;;;;5063810;28;11211;-48
2022/04/26 05:27:55;;;;;;;;;16.00;13.75;16.20;99.90;;;;;;5069591;28;11422;-52
2022/04/26 05:30:27;;;;;;;;;13.75;13.75;16.30;99.90;;;;;;5070390;28;11462;-51
2022/04/26 05:32:57;;;;;;;;;14.50;14.50;16.20;99.90;;;;;;5055331;28;11431;-51
2022/04/26 05:35:27;;;;;;;;;18.00;15.25;16.20;99.90;;;;;;5070134;28;11504;-50
2022/04/26 05:37:58;;;;;;;;;17.50;16.00;16.20;99.90;;;;;;5066136;28;11470;-52
2022/04/26 05:40:29;;;;;;;;;16.00;16.00;16.20;99.90;;;;;;5048930;28;11463;-52
2022/04/26 05:43:03;;;;;;;;;19.50;14.75;16.20;99.90;;;;;;5063050;28;11867;-51
2022/04/26 05:45:35;;;;;;;;;15.50;13.50;16.20;99.90;;;;;;5067830;28;11539;-52
2022/04/26 05:48:13;;;;;;;;;15.25;15.25;16.20;99.90;;;;;;5071234;28;11743;-52
2022/04/26 05:50:44;;;;;;;;;12.50;12.50;16.10;99.90;;;;;;5063128;28;11461;-53
2022/04/26 05:53:15;;;;;;;;;15.00;13.00;16.20;99.90;;;;;;5067820;28;11465;-50
2022/04/26 05:55:46;;;;;;;;;17.75;17.00;16.20;99.90;;;;;;5054043;28;11480;-49
2022/04/26 05:58:17;;;;;;;;;17.75;16.75;16.10;99.90;;;;;;5076927;28;11477;-51
2022/04/26 06:00:47;;;;;;;;;15.25;15.25;16.10;99.90;;;;;;5070970;28;11494;-47
2022/04/26 06:03:21;;;;;;;;;17.00;17.00;16.10;99.90;;;;;;5070730;28;11466;-49
2022/04/26 06:05:52;;;;;;;;;13.50;13.50;16.10;99.90;;;;;;5071910;28;11482;-50
2022/04/26 06:08:23;;;;;;;;;17.00;16.50;16.00;99.90;;;;;;5066972;28;11430;-51
2022/04/26 06:10:54;;;;;;;;;15.25;15.25;16.00;99.90;;;;;;5060512;28;11453;-50
2022/04/26 06:13:25;;;;;;;;;13.00;13.00;16.00;99.90;;;;;;5068847;28;11443;-50
2022/04/26 06:15:56;;;;;;;;;13.00;13.00;16.00;99.90;;;;;;5067492;28;11455;-51
2022/04/26 06:18:28;;;;;;;;;13.75;12.00;16.00;99.90;;;;;;5073416;28;11438;-49
2022/04/26 06:20:59;;;;;;;;;15.75;15.75;16.00;99.90;;;;;;5070011;28;11506;-49
2022/04/26 06:23:31;;;;;;;;;15.50;15.50;15.90;99.90;;;;;;5065008;28;11598;-51
2022/04/26 06:26:01;;;;;;;;;14.00;14.00;15.90;99.90;;;;;;5064372;28;11183;-49
2022/04/26 06:28:34;;;;;;;;;16.50;15.00;15.90;99.90;;;;;;5063194;28;11459;-53
2022/04/26 06:31:05;;;;;;;;;14.00;14.00;15.90;99.90;;;;;;5077830;28;11496;-54
2022/04/26 06:33:35;;;;;;;;;16.75;15.00;15.90;99.90;;;;;;5066532;28;11421;-47
2022/04/26 06:36:06;;;;;;;;;14.75;14.75;15.80;99.90;;;;;;5076740;28;11464;-51
2022/04/26 06:38:36;;;;;;;;;19.25;19.25;15.80;99.90;;;;;;5067321;28;11491;-47
2022/04/26 06:41:06;;;;;;;;;15.75;15.75;15.80;99.90;;;;;;5058813;28;11486;-50
2022/04/26 06:43:37;;;;;;;;;16.25;16.25;15.80;99.90;;;;;;5066551;28;11428;-48
2022/04/26 06:46:09;;;;;;;;;17.50;17.50;15.80;99.90;;;;;;5070876;28;11467;-48
2022/04/26 06:48:41;;;;;;;;;15.25;15.00;15.80;99.90;;;;;;5072169;28;11463;-48
2022/04/26 06:51:12;;;;;;;;;15.50;15.50;15.70;99.90;;;;;;5064333;28;12252;-48
2022/04/26 06:53:44;;;;;;;;;16.00;16.00;15.70;99.90;;;;;;5069730;28;11448;-48
2022/04/26 06:56:14;;;;;;;;;15.00;15.00;15.70;99.90;;;;;;5075115;28;11471;-49
2022/04/26 06:58:44;;;;;;;;;15.00;15.00;15.70;99.90;;;;;;5065597;28;11451;-46
2022/04/26 07:01:15;;;;;;;;;17.50;15.75;15.60;99.90;;;;;;5065995;28;11223;-49
2022/04/26 07:04:06;;;;;;;;;13.75;13.00;15.60;99.90;;;;;;5067480;28;11495;-46
2022/04/26 07:06:39;;;;;;;;;20.00;18.25;15.60;99.90;;;;;;5070367;28;11444;-48
2022/04/26 07:09:09;;;;;;;;;19.00;17.25;15.60;99.90;;;;;;5070741;28;11529;-51
2022/04/26 07:11:42;;;;;;;;;19.00;19.00;15.60;99.90;;;;;;5051315;28;11459;-50
2022/04/26 07:14:13;;;;;;;;;17.50;16.75;15.60;99.90;;;;;;5066342;28;11466;-52
2022/04/26 07:16:49;;;;;;;;;13.50;11.75;15.50;99.90;;;;;;5067322;28;11478;-50
2022/04/26 07:19:22;;;;;;;;;17.25;17.00;15.50;99.90;;;;;;5069846;28;11416;-52
2022/04/26 07:21:52;;;;;;;;;21.00;16.75;15.60;99.90;;;;;;5071349;28;11437;-51
2022/04/26 07:24:37;;;;;;;;;17.50;17.50;15.50;99.90;;;;;;5070270;28;11441;-48
2022/04/26 07:27:07;;;;;;;;;14.25;14.25;15.50;99.90;;;;;;5070386;28;11477;-48
2022/04/26 07:29:43;;;;;;;;;16.75;16.75;15.50;99.90;;;;;;5076719;28;11442;-48
2022/04/26 07:32:14;;;;;;;;;18.00;17.25;15.50;99.90;;;;;;5072636;28;11466;-49
2022/04/26 07:34:45;;;;;;;;;13.75;13.75;15.50;99.90;;;;;;5073556;28;11452;-48
2022/04/26 07:37:20;;;;;;;;;18.00;18.00;15.50;99.90;;;;;;5071699;28;11433;-49
2022/04/26 07:39:51;;;;;;;;;18.50;18.50;15.50;99.90;;;;;;5076125;28;11489;-48
2022/04/26 07:42:21;;;;;;;;;17.00;17.00;15.50;99.90;;;;;;5070124;28;11467;-46
2022/04/26 07:44:52;;;;;;;;;15.50;15.50;15.50;99.90;;;;;;5075654;28;12233;-46
2022/04/26 07:47:24;;;;;;;;;20.00;20.00;15.50;99.90;;;;;;5076625;28;11486;-49
2022/04/26 07:49:55;;;;;;;;;20.50;18.75;15.40;99.90;;;;;;5068239;28;11442;-50
2022/04/26 07:52:28;;;;;;;;;17.00;17.00;15.40;99.90;;;;;;5070982;28;11454;-48
2022/04/26 07:55:00;;;;;;;;;14.00;14.00;15.40;99.90;;;;;;5066621;28;12332;-50
2022/04/26 07:57:33;;;;;;;;;18.75;17.25;15.40;99.90;;;;;;5075063;28;11525;-46
2022/04/26 08:00:06;;;;;;;;;18.50;18.50;15.40;99.90;;;;;;5072419;28;11441;-47
2022/04/26 08:02:43;;;;;;;;;14.00;14.00;15.40;99.90;;;;;;5074160;28;12260;-50
2022/04/26 08:05:14;;;;;;;;;16.75;16.75;15.30;99.90;;;;;;5069997;28;11457;-49
2022/04/26 08:07:46;;;;;;;;;21.00;21.00;15.30;99.90;;;;;;5049924;28;11475;-48
2022/04/26 08:10:16;;;;;;;;;17.75;15.75;15.30;99.90;;;;;;5065490;28;11444;-48
2022/04/26 08:12:47;;;;;;;;;20.00;19.75;15.30;99.90;;;;;;5073237;28;11493;-49
2022/04/26 08:15:19;;;;;;;;;17.25;17.25;15.30;99.90;;;;;;5075818;28;11479;-47
2022/04/26 08:17:49;;;;;;;;;15.25;13.75;15.30;99.90;;;;;;5069240;28;11639;-50
2022/04/26 08:20:19;;;;;;;;;16.25;16.25;15.30;99.90;;;;;;5067243;28;11476;-46
2022/04/26 08:22:49;;;;;;;;;12.50;12.50;15.30;99.90;;;;;;5074992;28;11438;-47
2022/04/26 08:28:10;;;;;;;;;15.75;15.75;15.30;99.90;;;;;;5070955;28;11478;-48
2022/04/26 08:30:43;;;;;;;;;20.25;18.75;15.30;99.90;;;;;;5071708;28;11438;-49
2022/04/26 08:33:15;;;;;;;;;16.25;16.25;15.20;99.90;;;;;;5071073;28;11513;-47
2022/04/26 08:35:45;;;;;;;;;15.00;15.00;15.20;99.90;;;;;;5072164;28;11442;-50
2022/04/26 08:38:33;;;;;;;;;14.50;14.00;15.20;99.90;;;;;;5063281;28;11464;-51
2022/04/26 08:41:04;;;;;;;;;17.25;17.25;15.20;99.90;;;;;;5065116;28;11505;-51
2022/04/26 08:43:39;;;;;;;;;14.00;14.00;15.20;99.90;;;;;;5073466;28;11453;-47
2022/04/26 08:46:10;;;;;;;;;20.00;20.00;15.20;99.90;;;;;;5052097;28;12590;-47
2022/04/26 08:51:31;;;;;;;;;17.50;15.50;15.10;99.90;;;;;;5076748;28;11471;-50
2022/04/26 08:54:01;;;;;;;;;18.75;18.75;15.10;99.90;;;;;;5063859;28;11447;-48
2022/04/26 08:56:32;;;;;;;;;15.00;15.00;15.10;99.90;;;;;;5051049;28;11452;-51
2022/04/26 08:59:02;;;;;;;;;15.00;15.00;15.10;99.90;;;;;;5067517;28;11467;-48
2022/04/26 09:01:33;;;;;;;;;15.00;13.50;15.10;99.90;;;;;;5071509;28;11453;-49
2022/04/26 09:04:03;;;;;;;;;18.25;18.25;15.10;99.90;;;;;;5072086;28;11457;-48
2022/04/26 09:06:39;;;;;;;;;15.00;15.00;15.10;99.90;;;;;;5072863;28;11495;-49
2022/04/26 09:09:17;;;;;;;;;15.75;15.75;15.10;99.90;;;;;;5068733;28;11510;-49
2022/04/26 09:11:49;;;;;;;;;15.25;13.50;15.10;99.90;;;;;;5071714;28;11453;-51
2022/04/26 09:14:30;;;;;;;;;15.00;15.00;15.00;99.90;;;;;;5052269;28;11486;-50
2022/04/26 09:17:08;;;;;;;;;18.25;16.75;15.00;99.90;;;;;;5072810;28;11494;-48
2022/04/26 09:19:55;;;;;;;;;16.75;16.75;15.00;99.90;;;;;;5071472;28;11460;-50
2022/04/26 09:22:29;;;;;;;;;12.75;12.75;15.00;99.90;;;;;;5064447;28;11482;-51
2022/04/26 09:25:09;;;;;;;;;19.50;17.00;15.00;99.90;;;;;;5064136;28;11514;-48
2022/04/26 09:27:42;;;;;;;;;13.75;13.75;15.00;99.90;;;;;;5075739;28;11441;-47
2022/04/26 09:30:13;;;;;;;;;14.00;14.00;14.90;99.90;;;;;;5062236;28;11773;-48
2022/04/26 09:32:49;;;;;;;;;14.25;14.25;14.90;99.90;;;;;;5071534;28;12252;-47
2022/04/26 09:35:29;;;;;;;;;19.00;17.25;14.90;99.90;;;;;;5068702;28;12274;-50
2022/04/26 09:37:59;;;;;;;;;18.25;18.25;14.90;99.90;;;;;;5071022;28;12234;-51
2022/04/26 09:40:35;;;;;;;;;15.50;15.50;14.90;99.90;;;;;;5060767;28;11459;-48
2022/04/26 09:43:16;;;;;;;;;16.25;16.25;14.90;99.90;;;;;;5067728;28;11480;-47
2022/04/26 09:45:57;;;;;;;;;16.00;16.00;14.90;99.90;;;;;;5071038;28;11437;-49
2022/04/26 09:48:35;;;;;;;;;15.50;14.25;14.90;99.90;;;;;;5065364;28;11472;-49
2022/04/26 09:51:07;;;;;;;;;18.00;15.25;14.90;99.90;;;;;;5046863;28;11452;-48
2022/04/26 09:53:40;;;;;;;;;20.75;19.75;14.80;99.90;;;;;;5064846;28;11459;-50
2022/04/26 09:56:13;;;;;;;;;15.25;15.25;14.80;99.90;;;;;;5068724;28;11456;-48
2022/04/26 09:58:56;;;;;;;;;14.50;13.25;14.80;99.90;;;;;;5073430;28;11459;-48
2022/04/26 10:01:45;;;;;;;;;12.00;12.00;14.80;99.90;;;;;;5074210;28;11433;-49
2022/04/26 10:04:20;;;;;;;;;16.00;16.00;14.80;99.90;;;;;;5072589;28;11420;-51
2022/04/26 10:07:04;;;;;;;;;16.00;16.00;14.80;99.90;;;;;;5049349;28;11519;-48
2022/04/26 10:09:34;;;;;;;;;13.75;13.75;14.80;99.90;;;;;;5070925;28;11567;-51
2022/04/26 10:12:06;;;;;;;;;14.50;12.50;14.80;99.90;;;;;;5068183;28;11493;-52
2022/04/26 10:14:37;;;;;;;;;14.75;14.75;14.80;99.90;;;;;;5071698;28;11457;-47
2022/04/26 10:17:14;;;;;;;;;14.00;13.50;14.80;99.90;;;;;;5067929;28;11445;-49
2022/04/26 10:19:45;;;;;;;;;18.25;16.25;14.80;99.90;;;;;;5066234;28;11516;-52
2022/04/26 10:22:57;;;;;;;;;17.00;16.50;14.70;99.90;;;;;;5065834;28;11461;-49
2022/04/26 10:25:31;;;;;;;;;11.75;11.75;14.70;99.90;;;;;;5071937;28;11490;-48
2022/04/26 10:28:28;;;;;;;;;14.50;14.50;14.70;99.90;;;;;;5070458;28;11426;-46
2022/04/26 10:30:58;;;;;;;;;15.00;15.00;14.70;99.90;;;;;;5055655;28;11436;-48
2022/04/26 10:33:42;;;;;;;;;16.50;16.25;14.70;99.90;;;;;;5069243;28;11455;-50
2022/04/26 10:36:35;;;;;;;;;18.00;15.50;14.70;99.90;;;;;;5063045;28;11489;-50
2022/04/26 10:39:12;;;;;;;;;13.00;13.00;14.70;99.90;;;;;;5059988;28;11518;-50
2022/04/26 10:41:44;;;;;;;;;13.50;13.50;14.70;99.90;;;;;;5067254;28;11456;-49
2022/04/26 10:44:24;;;;;;;;;15.25;15.25;14.70;99.90;;;;;;5056262;28;11495;-50
2022/04/26 10:46:58;;;;;;;;;17.25;17.25;14.70;99.90;;;;;;5070382;28;11494;-51
2022/04/26 10:49:40;;;;;;;;;15.75;14.25;14.70;99.90;;;;;;5069728;28;11470;-50
2022/04/26 10:52:23;;;;;;;;;16.50;16.50;14.70;99.90;;;;;;5070677;28;11455;-47
2022/04/26 10:54:59;;;;;;;;;12.50;12.50;14.70;99.90;;;;;;5067847;28;12254;-47
2022/04/26 10:57:38;;;;;;;;;16.50;16.50;14.70;99.90;;;;;;5073529;28;11515;-46
2022/04/26 11:00:21;;;;;;;;;14.00;14.00;14.70;99.90;;;;;;5069610;28;11484;-51
2022/04/26 11:02:51;;;;;;;;;14.75;14.75;14.70;99.90;;;;;;5066194;28;11467;-49
2022/04/26 11:05:27;;;;;;;;;14.75;14.75;14.70;99.90;;;;;;5046339;28;11436;-49
2022/04/26 11:07:58;;;;;;;;;13.00;13.00;14.60;99.90;;;;;;5062167;28;11425;-46
2022/04/26 11:11:00;;;;;;;;;17.25;16.75;14.60;99.90;;;;;;5068551;28;11450;-46
2022/04/26 11:13:21;;;;;;;;;11.75;11.75;14.60;99.90;;;;;;5062854;28;11434;-50
2022/04/26 11:16:12;;;;;;;;;14.75;14.75;14.60;99.90;;;;;;5068404;28;11537;-48
2022/04/26 11:18:43;;;;;;;;;18.25;16.75;14.60;99.90;;;;;;5049350;28;11456;-51
2022/04/26 11:21:14;;;;;;;;;17.00;14.75;14.60;99.90;;;;;;5068010;28;11499;-49
2022/04/26 11:29:43;;;;;;;;;22.00;16.50;14.50;99.90;;;;;;5068224;28;11442;-48
2022/04/26 11:32:43;;;;;;;;;14.50;13.25;14.50;99.90;;;;;;5069447;28;11491;-51
2022/04/26 11:35:17;;;;;;;;;16.25;15.00;14.50;99.90;;;;;;5065530;28;11509;-52
2022/04/26 11:37:55;;;;;;;;;16.00;16.00;14.50;99.90;;;;;;5069871;28;11545;-51
2022/04/26 11:40:33;;;;;;;;;14.75;14.75;14.50;99.90;;;;;;5063213;28;11964;-53
2022/04/26 11:43:13;;;;;;;;;18.25;18.25;14.40;99.90;;;;;;5061849;28;11455;-50
2022/04/26 11:45:45;;;;;;;;;17.00;17.00;14.40;99.90;;;;;;5065005;28;11536;-50
2022/04/26 11:48:17;;;;;;;;;17.00;16.00;14.40;99.90;;;;;;5046164;28;11467;-47
2022/04/26 11:50:49;;;;;;;;;13.00;13.00;14.40;99.90;;;;;;5069002;28;11439;-49
2022/04/26 11:53:28;;;;;;;;;18.50;17.25;14.30;99.90;;;;;;5064961;28;11461;-52
2022/04/26 11:56:00;;;;;;;;;17.00;16.75;14.30;99.90;;;;;;5068750;28;11501;-49
2022/04/26 11:58:35;;;;;;;;;15.75;14.25;14.30;99.90;;;;;;5062863;28;11516;-51
2022/04/26 12:01:15;;;;;;;;;17.25;17.25;14.30;99.90;;;;;;5072686;28;11512;-47
2022/04/26 12:03:59;;;;;;;;;14.50;14.50;14.30;99.90;;;;;;5068226;28;11535;-48
2022/04/26 12:06:36;;;;;;;;;14.00;12.75;14.30;99.90;;;;;;5065233;28;11492;-47
2022/04/26 12:09:11;;;;;;;;;17.50;16.25;14.30;99.90;;;;;;5061760;28;11550;-49
2022/04/26 12:11:44;;;;;;;;;16.75;16.75;14.30;99.90;;;;;;5067742;28;11432;-47
2022/04/26 12:14:22;;;;;;;;;16.00;14.50;14.30;99.90;;;;;;5061017;28;11497;-49
2022/04/26 12:16:55;;;;;;;;;13.75;13.75;14.30;99.90;;;;;;5056391;28;11543;-50
2022/04/26 12:19:36;;;;;;;;;18.25;16.00;14.30;99.90;;;;;;5071707;28;11583;-50
2022/04/26 12:22:07;;;;;;;;;18.00;17.50;14.30;99.90;;;;;;5076218;28;11493;-52
2022/04/26 12:24:51;;;;;;;;;15.75;15.25;14.30;99.90;;;;;;5071577;28;11572;-52
2022/04/26 12:27:22;;;;;;;;;10.50;10.50;14.30;99.90;;;;;;5066367;28;11547;-51
2022/04/26 12:29:52;;;;;;;;;13.50;11.75;14.30;99.90;;;;;;5080029;28;11485;-51
2022/04/26 12:32:26;;;;;;;;;14.50;14.50;14.30;99.90;;;;;;5072954;28;11488;-49
2022/04/26 12:35:01;;;;;;;;;13.75;13.75;14.30;99.90;;;;;;5077575;28;12306;-49
2022/04/26 12:37:34;;;;;;;;;13.00;13.00;14.30;99.90;;;;;;5071788;28;11492;-51
2022/04/26 12:40:11;;;;;;;;;16.75;15.50;14.20;99.90;;;;;;5076894;28;12573;-50
2022/04/26 12:42:45;;;;;;;;;13.75;13.75;14.20;99.90;;;;;;5064590;28;12242;-48
2022/04/26 12:45:26;;;;;;;;;15.75;14.75;14.30;99.90;;;;;;5073549;28;11612;-52
2022/04/26 12:51:34;;;;;;;;;18.00;16.00;14.20;99.90;;;;;;5068465;28;12206;-50
2022/04/26 12:54:09;;;;;;;;;21.00;19.75;14.20;99.90;;;;;;5014215;28;11588;-48
2022/04/26 12:56:40;;;;;;;;;15.50;13.75;14.20;99.90;;;;;;5049351;28;11553;-46
2022/04/26 12:59:18;;;;;;;;;20.25;19.25;14.10;99.90;;;;;;5053980;28;11564;-49
2022/04/26 13:01:48;;;;;;;;;17.00;16.75;14.20;99.90;;;;;;5052755;28;11543;-49
2022/04/26 13:04:19;;;;;;;;;15.50;15.50;14.20;99.90;;;;;;5062699;28;12346;-50
2022/04/26 13:06:50;;;;;;;;;16.50;15.75;14.20;99.90;;;;;;5045416;28;12331;-47
2022/04/26 13:09:36;;;;;;;;;16.25;15.25;14.20;99.90;;;;;;5047551;28;12360;-49
2022/04/26 13:12:06;;;;;;;;;11.25;11.25;14.10;99.90;;;;;;5053026;28;11593;-48
2022/04/26 13:14:37;;;;;;;;;14.00;14.00;14.10;99.90;;;;;;5045738;28;12555;-49
2022/04/26 13:17:16;;;;;;;;;13.75;13.75;14.10;99.90;;;;;;5043424;28;11552;-50
2022/04/26 13:19:47;;;;;;;;;15.00;15.00;14.10;99.90;;;;;;5045893;28;11558;-52
2022/04/26 13:22:18;;;;;;;;;15.50;15.50;14.10;99.90;;;;;;5054447;28;11541;-50
2022/04/26 13:24:51;;;;;;;;;17.50;17.50;14.10;99.90;;;;;;5053628;28;11560;-47
2022/04/26 13:27:21;;;;;;;;;14.00;14.00;14.10;99.90;;;;;;5047959;28;12332;-51
2022/04/26 13:29:51;;;;;;;;;13.75;13.00;14.00;99.90;;;;;;5046354;28;11568;-51
2022/04/26 13:32:22;;;;;;;;;14.50;14.50;14.00;99.90;;;;;;5047564;28;11568;-47
2022/04/26 13:34:53;;;;;;;;;15.75;14.25;14.10;99.90;;;;;;5047081;28;11595;-52
2022/04/26 13:37:31;;;;;;;;;17.50;16.50;14.00;99.90;;;;;;5052029;28;11533;-52
2022/04/26 13:40:03;;;;;;;;;18.50;18.50;14.00;99.90;;;;;;5050407;28;11543;-50
2022/04/26 13:42:36;;;;;;;;;15.00;15.00;14.00;99.90;;;;;;5048850;28;11580;-50
2022/04/26 13:45:07;;;;;;;;;11.25;11.25;13.90;99.90;;;;;;5046214;28;11545;-49
2022/04/26 13:47:38;;;;;;;;;13.00;12.00;14.00;99.90;;;;;;5050850;28;11577;-52
2022/04/26 13:50:09;;;;;;;;;17.50;14.00;14.00;99.90;;;;;;5059154;28;11589;-49
2022/04/26 13:52:44;;;;;;;;;15.75;15.25;13.90;99.90;;;;;;5048259;28;11581;-47
2022/04/26 13:55:17;;;;;;;;;14.75;14.50;13.90;99.90;;;;;;5066828;28;11517;-49
2022/04/26 13:57:48;;;;;;;;;13.00;12.75;13.90;99.90;;;;;;5063015;28;11515;-51
2022/04/26 14:00:20;;;;;;;;;13.25;13.25;13.90;99.90;;;;;;5077571;28;11479;-48
2022/04/26 14:02:50;;;;;;;;;10.75;10.75;13.90;99.90;;;;;;5080200;28;11445;-50
2022/04/26 14:05:23;;;;;;;;;14.00;13.25;13.90;99.90;;;;;;5067976;28;11525;-45
2022/04/26 14:07:56;;;;;;;;;18.50;16.75;13.90;99.90;;;;;;5067263;28;11490;-49
2022/04/26 14:10:27;;;;;;;;;15.75;13.75;13.90;99.90;;;;;;5066454;28;11550;-50
2022/04/26 14:12:59;;;;;;;;;13.75;13.75;13.90;99.90;;;;;;5074761;28;11490;-49
2022/04/26 14:24:06;;;;;;;;;10.50;10.50;13.90;99.90;;;;;;5065823;28;11484;-47
2022/04/26 14:26:37;;;;;;;;;10.00;10.00;13.90;99.90;;;;;;5062654;28;11448;-46
2022/04/26 14:29:07;;;;;;;;;13.75;13.75;13.90;99.90;;;;;;5071629;28;11424;-49
2022/04/26 14:31:44;;;;;;;;;13.50;11.75;13.90;99.90;;;;;;5051574;28;11505;-47
2022/04/26 14:34:15;;;;;;;;;12.75;12.25;13.90;99.90;;;;;;5077825;28;11494;-46
2022/04/26 14:36:46;;;;;;;;;10.75;9.00;13.90;99.90;;;;;;5065862;28;12280;-49
2022/04/26 14:39:25;;;;;;;;;8.00;7.50;13.90;99.90;;;;;;5073315;28;11584;-50
2022/04/26 14:41:57;;;;;;;;;8.75;8.00;13.90;99.90;;;;;;5069708;28;11412;-48
2022/04/26 14:44:27;;;;;;;;;5.75;5.75;13.90;99.90;;;;;;5066544;28;11437;-48
2022/04/26 14:46:59;;;;;;;;;11.75;11.25;13.90;99.90;;;;;;5065263;28;11406;-48
2022/04/26 14:49:32;;;;;;;;;12.25;11.75;13.90;99.90;;;;;;5078214;28;11475;-47
2022/04/26 14:52:03;;;;;;;;;15.75;15.75;13.90;99.90;;;;;;5081552;28;11433;-50
2022/04/26 14:54:55;;;;;;;;;10.00;10.00;13.90;99.90;;;;;;5050110;28;11506;-49
2022/04/26 14:57:29;;;;;;;;;10.50;9.50;13.90;99.90;;;;;;5050326;28;11524;-50
2022/04/26 14:59:59;;;;;;;;;8.25;8.25;13.90;99.90;;;;;;5050516;28;11468;-48
2022/04/26 15:02:38;;;;;;;;;7.50;7.50;13.90;99.90;;;;;;5054924;28;11473;-50
2022/04/26 15:05:13;;;;;;;;;12.25;10.75;13.90;99.90;;;;;;5045404;28;11458;-48
2022/04/26 15:10:31;;;;;;;;;11.75;10.50;13.90;99.90;;;;;;5053736;28;12256;-46
2022/04/26 15:18:41;;;;;;;;;8.50;8.50;13.90;99.90;;;;;;5049047;28;12182;-50
2022/04/26 15:21:11;;;;;;;;;8.75;8.75;13.90;99.90;;;;;;5042116;28;11585;-48
2022/04/26 15:23:42;;;;;;;;;8.75;8.75;14.00;99.90;;;;;;5041547;28;11450;-48
2022/04/26 15:26:12;;;;;;;;;11.75;10.25;14.00;99.90;;;;;;5043253;28;11471;-50
2022/04/26 15:28:42;;;;;;;;;8.50;8.50;14.00;99.90;;;;;;5049255;28;11533;-50
2022/04/26 15:31:18;;;;;;;;;9.00;7.75;14.00;99.90;;;;;;5045710;28;11490;-50
2022/04/26 15:33:50;;;;;;;;;7.25;7.25;14.00;99.90;;;;;;5040976;28;11468;-47
2022/04/26 15:36:21;;;;;;;;;8.75;7.75;14.00;99.90;;;;;;5043800;28;11492;-51
2022/04/26 15:38:56;;;;;;;;;8.25;8.25;14.00;99.90;;;;;;5046232;28;11484;-50
2022/04/26 15:41:27;;;;;;;;;9.25;7.75;14.10;99.90;;;;;;5049395;28;11520;-50
2022/04/26 15:44:00;;;;;;;;;8.50;8.50;14.10;99.90;;;;;;5051796;28;11478;-51
2022/04/26 15:46:47;;;;;;;;;8.50;8.50;14.10;99.90;;;;;;5044373;28;11442;-48
2022/04/26 15:49:20;;;;;;;;;10.50;9.00;14.00;99.90;;;;;;5048813;28;11449;-49
2022/04/26 15:51:57;;;;;;;;;8.25;8.25;14.00;99.90;;;;;;5050365;28;11466;-50
2022/04/26 15:54:28;;;;;;;;;8.25;8.25;14.00;99.90;;;;;;5066259;28;11426;-49
2022/04/26 15:56:59;;;;;;;;;9.00;9.00;14.00;99.90;;;;;;5069020;28;11413;-51
2022/04/26 15:59:32;;;;;;;;;8.50;7.00;14.00;99.90;;;;;;5071751;28;11401;-49
2022/04/26 16:02:04;;;;;;;;;7.00;7.00;14.10;99.90;;;;;;5074437;28;11400;-50
2022/04/26 16:04:36;;;;;;;;;7.50;7.50;14.00;99.90;;;;;;5073229;28;11415;-52
2022/04/26 16:07:07;;;;;;;;;8.50;7.25;14.00;99.90;;;;;;5053541;28;11420;-50
2022/04/26 16:20:55;;;;;;;;;7.50;6.00;14.10;99.90;;;;;;5065678;28;12213;-51
2022/04/26 16:23:25;;;;;;;;;7.25;7.25;14.20;99.90;;;;;;5050524;28;11428;-50
2022/04/26 16:26:01;;;;;;;;;7.50;7.50;14.20;99.90;;;;;;5072207;28;11411;-50
2022/04/26 16:28:34;;;;;;;;;9.25;7.25;14.20;99.90;;;;;;5069681;28;11806;-51
2022/04/26 16:31:06;;;;;;;;;8.00;7.25;14.30;99.90;;;;;;5076720;28;11417;-50
2022/04/26 16:33:36;;;;;;;;;8.00;7.00;14.30;99.90;;;;;;5072059;28;11381;-48
2022/04/26 16:36:08;;;;;;;;;6.25;6.25;14.30;99.90;;;;;;5066976;28;11425;-52
2022/04/26 16:38:40;;;;;;;;;10.00;8.75;14.40;99.90;;;;;;5055687;28;11420;-51
2022/04/26 16:41:11;;;;;;;;;9.00;9.00;14.30;99.90;;;;;;5050919;28;11430;-50
2022/04/26 16:43:43;;;;;;;;;8.50;8.25;14.40;99.90;;;;;;5077083;28;12151;-47
2022/04/26 16:46:15;;;;;;;;;7.00;6.75;14.40;99.90;;;;;;5067480;28;11796;-51
2022/04/26 16:48:46;;;;;;;;;8.00;8.00;14.50;99.90;;;;;;5068557;28;11430;-50
2022/04/26 16:51:19;;;;;;;;;7.75;7.75;14.40;99.90;;;;;;5064803;28;11095;-49
2022/04/26 16:53:50;;;;;;;;;9.25;7.50;14.40;99.90;;;;;;5072956;28;11231;-50
2022/04/26 16:56:21;;;;;;;;;7.00;7.00;14.50;99.90;;;;;;5070037;28;11173;-53
2022/04/26 16:58:55;;;;;;;;;7.25;7.25;14.50;99.90;;;;;;5068409;28;11051;-48
2022/04/26 17:01:26;;;;;;;;;7.00;6.00;14.50;99.90;;;;;;5073426;28;11392;-46
2022/04/26 17:03:57;;;;;;;;;3.00;3.00;14.50;99.90;;;;;;5053215;28;11020;-48
2022/04/26 17:06:28;;;;;;;;;7.50;7.50;14.50;99.90;;;;;;5068463;28;11979;-50
2022/04/26 17:08:59;;;;;;;;;3.75;3.75;14.50;99.90;;;;;;5067737;28;11405;-52
2022/04/26 17:11:44;;;;;;;;;7.75;7.75;14.50;99.90;;;;;;5062156;28;11139;-47
2022/04/26 17:14:16;;;;;;;;;8.75;8.75;14.50;99.90;;;;;;5065988;28;11181;-48
2022/04/26 17:16:48;;;;;;;;;7.75;7.75;14.50;99.90;;;;;;5075297;28;10867;-50
2022/04/26 17:19:20;;;;;;;;;10.25;8.75;14.60;99.90;;;;;;5070704;28;11531;-48
2022/04/26 17:21:51;;;;;;;;;11.75;9.25;14.60;99.90;;;;;;5065997;28;11410;-53